sensor_id;sensor_type;location;lat;lon;timestamp;P1;durP1;ratioP1;P2;durP2;ratioP2
3175;SDS011;1599;51.564;6.990;2023-05-23T00:09:21;16.83;;;12.50;;
3175;SDS011;1599;51.564;6.990;2023-05-23T00:11:46;17.80;;;12.70;;
3175;SDS011;1599;51.564;6.990;2023-05-23T00:14:14;18.03;;;10.73;;
3175;SDS011;1599;51.564;6.990;2023-05-23T00:17:15;14.70;;;10.93;;
3175;SDS011;1599;51.564;6.990;2023-05-23T00:19:41;14.10;;;10.80;;
3175;SDS011;1599;51.564;6.990;2023-05-23T00:22:12;14.23;;;11.00;;
3175;SDS011;1599;51.564;6.990;2023-05-23T00:24:40;13.40;;;11.63;;
3175;SDS011;1599;51.564;6.990;2023-05-23T00:27:21;16.37;;;11.33;;
3175;SDS011;1599;51.564;6.990;2023-05-23T00:29:54;13.10;;;10.50;;
3175;SDS011;1599;51.564;6.990;2023-05-23T00:36:03;12.43;;;10.17;;
3175;SDS011;1599;51.564;6.990;2023-05-23T00:38:28;11.60;;;9.53;;
3175;SDS011;1599;51.564;6.990;2023-05-23T00:40:54;13.90;;;11.00;;
3175;SDS011;1599;51.564;6.990;2023-05-23T00:43:20;12.77;;;10.30;;
3175;SDS011;1599;51.564;6.990;2023-05-23T00:45:47;12.43;;;9.43;;
3175;SDS011;1599;51.564;6.990;2023-05-23T00:48:13;11.93;;;9.20;;
3175;SDS011;1599;51.564;6.990;2023-05-23T00:50:39;11.10;;;9.40;;
3175;SDS011;1599;51.564;6.990;2023-05-23T00:53:05;11.43;;;8.60;;
3175;SDS011;1599;51.564;6.990;2023-05-23T00:55:32;14.10;;;9.10;;
3175;SDS011;1599;51.564;6.990;2023-05-23T01:31:32;14.37;;;10.50;;
3175;SDS011;1599;51.564;6.990;2023-05-23T01:34:26;12.77;;;9.60;;
3175;SDS011;1599;51.564;6.990;2023-05-23T01:40:31;12.30;;;9.97;;
3175;SDS011;1599;51.564;6.990;2023-05-23T01:42:57;12.40;;;10.30;;
3175;SDS011;1599;51.564;6.990;2023-05-23T01:45:23;12.67;;;10.63;;
3175;SDS011;1599;51.564;6.990;2023-05-23T01:47:50;10.77;;;8.60;;
3175;SDS011;1599;51.564;6.990;2023-05-23T01:50:16;19.00;;;10.60;;
3175;SDS011;1599;51.564;6.990;2023-05-23T01:52:42;13.60;;;10.43;;
3175;SDS011;1599;51.564;6.990;2023-05-23T01:55:08;14.10;;;10.80;;
3175;SDS011;1599;51.564;6.990;2023-05-23T01:57:36;13.20;;;10.30;;
3175;SDS011;1599;51.564;6.990;2023-05-23T02:00:05;14.37;;;10.63;;
3175;SDS011;1599;51.564;6.990;2023-05-23T02:02:38;16.33;;;11.20;;
3175;SDS011;1599;51.564;6.990;2023-05-23T02:05:05;14.67;;;10.33;;
3175;SDS011;1599;51.564;6.990;2023-05-23T02:07:31;16.07;;;11.00;;
3175;SDS011;1599;51.564;6.990;2023-05-23T02:10:10;14.77;;;11.63;;
3175;SDS011;1599;51.564;6.990;2023-05-23T02:12:36;16.23;;;11.67;;
3175;SDS011;1599;51.564;6.990;2023-05-23T02:15:02;18.57;;;11.40;;
3175;SDS011;1599;51.564;6.990;2023-05-23T02:17:29;15.10;;;11.30;;
3175;SDS011;1599;51.564;6.990;2023-05-23T02:19:56;14.10;;;11.47;;
3175;SDS011;1599;51.564;6.990;2023-05-23T02:22:26;16.93;;;11.90;;
3175;SDS011;1599;51.564;6.990;2023-05-23T02:24:53;17.30;;;11.67;;
3175;SDS011;1599;51.564;6.990;2023-05-23T02:27:22;16.80;;;10.67;;
3175;SDS011;1599;51.564;6.990;2023-05-23T02:29:49;13.93;;;12.47;;
3175;SDS011;1599;51.564;6.990;2023-05-23T02:32:17;19.13;;;11.73;;
3175;SDS011;1599;51.564;6.990;2023-05-23T02:34:43;18.00;;;11.83;;
3175;SDS011;1599;51.564;6.990;2023-05-23T02:37:12;19.47;;;12.70;;
3175;SDS011;1599;51.564;6.990;2023-05-23T02:39:39;15.97;;;11.70;;
3175;SDS011;1599;51.564;6.990;2023-05-23T02:42:05;17.67;;;12.07;;
3175;SDS011;1599;51.564;6.990;2023-05-23T02:44:31;15.80;;;11.93;;
3175;SDS011;1599;51.564;6.990;2023-05-23T02:47:04;22.27;;;11.00;;
3175;SDS011;1599;51.564;6.990;2023-05-23T02:50:15;17.07;;;10.87;;
3175;SDS011;1599;51.564;6.990;2023-05-23T02:53:24;13.43;;;10.27;;
3175;SDS011;1599;51.564;6.990;2023-05-23T02:55:58;20.47;;;10.23;;
3175;SDS011;1599;51.564;6.990;2023-05-23T02:58:35;18.20;;;11.27;;
3175;SDS011;1599;51.564;6.990;2023-05-23T03:01:04;16.83;;;10.80;;
3175;SDS011;1599;51.564;6.990;2023-05-23T03:03:34;15.07;;;11.47;;
3175;SDS011;1599;51.564;6.990;2023-05-23T03:06:22;15.93;;;10.20;;
3175;SDS011;1599;51.564;6.990;2023-05-23T03:09:31;15.87;;;10.27;;
3175;SDS011;1599;51.564;6.990;2023-05-23T03:12:10;12.83;;;9.90;;
3175;SDS011;1599;51.564;6.990;2023-05-23T03:15:19;13.10;;;9.30;;
3175;SDS011;1599;51.564;6.990;2023-05-23T03:18:21;13.07;;;9.30;;
3175;SDS011;1599;51.564;6.990;2023-05-23T03:20:58;16.60;;;9.93;;
3175;SDS011;1599;51.564;6.990;2023-05-23T03:24:26;14.07;;;8.80;;
3175;SDS011;1599;51.564;6.990;2023-05-23T03:26:52;13.03;;;8.70;;
3175;SDS011;1599;51.564;6.990;2023-05-23T03:29:17;14.13;;;9.20;;
3175;SDS011;1599;51.564;6.990;2023-05-23T03:31:43;17.20;;;8.67;;
3175;SDS011;1599;51.564;6.990;2023-05-23T03:34:08;10.70;;;8.13;;
3175;SDS011;1599;51.564;6.990;2023-05-23T03:36:34;16.47;;;9.00;;
3175;SDS011;1599;51.564;6.990;2023-05-23T03:39:03;13.10;;;9.10;;
3175;SDS011;1599;51.564;6.990;2023-05-23T03:41:30;13.03;;;8.80;;
3175;SDS011;1599;51.564;6.990;2023-05-23T03:43:55;13.83;;;8.47;;
3175;SDS011;1599;51.564;6.990;2023-05-23T03:46:21;12.60;;;8.73;;
3175;SDS011;1599;51.564;6.990;2023-05-23T03:48:47;15.30;;;8.50;;
3175;SDS011;1599;51.564;6.990;2023-05-23T03:51:12;14.53;;;8.70;;
3175;SDS011;1599;51.564;6.990;2023-05-23T03:53:38;12.93;;;8.53;;
3175;SDS011;1599;51.564;6.990;2023-05-23T03:56:04;12.90;;;8.13;;
3175;SDS011;1599;51.564;6.990;2023-05-23T03:58:29;16.63;;;11.23;;
3175;SDS011;1599;51.564;6.990;2023-05-23T04:00:55;14.30;;;9.70;;
3175;SDS011;1599;51.564;6.990;2023-05-23T04:03:21;14.13;;;9.30;;
3175;SDS011;1599;51.564;6.990;2023-05-23T04:05:50;14.63;;;9.87;;
3175;SDS011;1599;51.564;6.990;2023-05-23T04:08:16;16.97;;;9.23;;
3175;SDS011;1599;51.564;6.990;2023-05-23T04:14:09;14.13;;;9.67;;
3175;SDS011;1599;51.564;6.990;2023-05-23T04:16:36;13.43;;;10.73;;
3175;SDS011;1599;51.564;6.990;2023-05-23T04:19:02;15.00;;;9.70;;
3175;SDS011;1599;51.564;6.990;2023-05-23T04:21:28;15.97;;;10.00;;
3175;SDS011;1599;51.564;6.990;2023-05-23T04:40:55;16.97;;;10.60;;
3175;SDS011;1599;51.564;6.990;2023-05-23T04:43:21;19.57;;;10.00;;
3175;SDS011;1599;51.564;6.990;2023-05-23T04:45:50;13.27;;;10.07;;
3175;SDS011;1599;51.564;6.990;2023-05-23T04:48:18;15.30;;;10.63;;
3175;SDS011;1599;51.564;6.990;2023-05-23T04:50:46;16.90;;;12.10;;
3175;SDS011;1599;51.564;6.990;2023-05-23T04:53:12;17.33;;;10.07;;
3175;SDS011;1599;51.564;6.990;2023-05-23T04:55:38;16.23;;;9.53;;
3175;SDS011;1599;51.564;6.990;2023-05-23T04:58:03;16.90;;;10.53;;
3175;SDS011;1599;51.564;6.990;2023-05-23T05:00:29;14.63;;;11.20;;
3175;SDS011;1599;51.564;6.990;2023-05-23T05:02:55;14.93;;;10.33;;
3175;SDS011;1599;51.564;6.990;2023-05-23T05:05:20;17.93;;;11.03;;
3175;SDS011;1599;51.564;6.990;2023-05-23T05:07:46;16.20;;;11.03;;
3175;SDS011;1599;51.564;6.990;2023-05-23T05:12:47;20.57;;;11.90;;
3175;SDS011;1599;51.564;6.990;2023-05-23T05:15:15;19.40;;;11.40;;
3175;SDS011;1599;51.564;6.990;2023-05-23T05:27:49;18.30;;;11.40;;
3175;SDS011;1599;51.564;6.990;2023-05-23T05:30:15;18.27;;;11.70;;
3175;SDS011;1599;51.564;6.990;2023-05-23T05:32:40;16.80;;;10.93;;
3175;SDS011;1599;51.564;6.990;2023-05-23T05:35:10;24.17;;;12.30;;
3175;SDS011;1599;51.564;6.990;2023-05-23T05:37:38;18.90;;;11.50;;
3175;SDS011;1599;51.564;6.990;2023-05-23T05:40:04;14.50;;;10.97;;
3175;SDS011;1599;51.564;6.990;2023-05-23T05:42:32;19.50;;;11.60;;
3175;SDS011;1599;51.564;6.990;2023-05-23T05:44:57;16.33;;;11.83;;
3175;SDS011;1599;51.564;6.990;2023-05-23T05:47:23;15.97;;;10.93;;
3175;SDS011;1599;51.564;6.990;2023-05-23T05:49:48;19.87;;;11.13;;
3175;SDS011;1599;51.564;6.990;2023-05-23T05:52:20;16.90;;;10.67;;
3175;SDS011;1599;51.564;6.990;2023-05-23T05:54:57;18.27;;;11.77;;
3175;SDS011;1599;51.564;6.990;2023-05-23T06:21:28;12.83;;;9.23;;
3175;SDS011;1599;51.564;6.990;2023-05-23T06:23:54;15.10;;;8.63;;
3175;SDS011;1599;51.564;6.990;2023-05-23T06:26:20;12.67;;;9.40;;
3175;SDS011;1599;51.564;6.990;2023-05-23T06:31:31;14.43;;;9.40;;
3175;SDS011;1599;51.564;6.990;2023-05-23T06:34:01;14.63;;;8.90;;
3175;SDS011;1599;51.564;6.990;2023-05-23T06:36:30;13.90;;;8.67;;
3175;SDS011;1599;51.564;6.990;2023-05-23T06:38:57;13.20;;;8.70;;
3175;SDS011;1599;51.564;6.990;2023-05-23T06:41:23;14.47;;;8.87;;
3175;SDS011;1599;51.564;6.990;2023-05-23T06:43:49;15.43;;;9.10;;
3175;SDS011;1599;51.564;6.990;2023-05-23T06:46:15;12.40;;;7.50;;
3175;SDS011;1599;51.564;6.990;2023-05-23T06:48:42;15.33;;;8.07;;
3175;SDS011;1599;51.564;6.990;2023-05-23T06:51:09;12.40;;;9.10;;
3175;SDS011;1599;51.564;6.990;2023-05-23T06:53:35;12.90;;;9.07;;
3175;SDS011;1599;51.564;6.990;2023-05-23T06:56:01;15.87;;;8.90;;
3175;SDS011;1599;51.564;6.990;2023-05-23T06:58:27;15.73;;;8.77;;
3175;SDS011;1599;51.564;6.990;2023-05-23T07:04:16;13.17;;;9.33;;
3175;SDS011;1599;51.564;6.990;2023-05-23T07:06:45;16.10;;;9.20;;
3175;SDS011;1599;51.564;6.990;2023-05-23T07:13:23;18.37;;;9.63;;
3175;SDS011;1599;51.564;6.990;2023-05-23T07:16:27;13.23;;;9.20;;
3175;SDS011;1599;51.564;6.990;2023-05-23T07:22:50;16.80;;;8.70;;
3175;SDS011;1599;51.564;6.990;2023-05-23T07:25:33;17.43;;;8.60;;
3175;SDS011;1599;51.564;6.990;2023-05-23T07:35:30;14.80;;;8.67;;
3175;SDS011;1599;51.564;6.990;2023-05-23T07:39:05;18.60;;;10.10;;
3175;SDS011;1599;51.564;6.990;2023-05-23T07:55:35;19.30;;;10.03;;
3175;SDS011;1599;51.564;6.990;2023-05-23T07:58:00;21.20;;;10.93;;
3175;SDS011;1599;51.564;6.990;2023-05-23T08:00:26;18.37;;;10.60;;
3175;SDS011;1599;51.564;6.990;2023-05-23T08:02:52;19.67;;;10.43;;
3175;SDS011;1599;51.564;6.990;2023-05-23T08:05:20;17.80;;;10.53;;
3175;SDS011;1599;51.564;6.990;2023-05-23T08:07:48;22.70;;;11.57;;
3175;SDS011;1599;51.564;6.990;2023-05-23T08:10:13;15.67;;;9.93;;
3175;SDS011;1599;51.564;6.990;2023-05-23T08:12:39;20.00;;;10.00;;
3175;SDS011;1599;51.564;6.990;2023-05-23T08:15:05;15.87;;;9.77;;
3175;SDS011;1599;51.564;6.990;2023-05-23T08:17:32;22.50;;;10.30;;
3175;SDS011;1599;51.564;6.990;2023-05-23T08:19:57;18.80;;;9.97;;
3175;SDS011;1599;51.564;6.990;2023-05-23T08:22:24;18.77;;;10.80;;
3175;SDS011;1599;51.564;6.990;2023-05-23T08:24:50;17.30;;;9.57;;
3175;SDS011;1599;51.564;6.990;2023-05-23T08:27:15;14.20;;;10.77;;
3175;SDS011;1599;51.564;6.990;2023-05-23T08:29:43;21.37;;;9.87;;
3175;SDS011;1599;51.564;6.990;2023-05-23T08:32:08;16.60;;;9.40;;
3175;SDS011;1599;51.564;6.990;2023-05-23T08:34:34;17.60;;;9.33;;
3175;SDS011;1599;51.564;6.990;2023-05-23T08:36:59;15.83;;;9.30;;
3175;SDS011;1599;51.564;6.990;2023-05-23T08:39:25;14.10;;;8.60;;
3175;SDS011;1599;51.564;6.990;2023-05-23T08:41:50;17.10;;;9.50;;
3175;SDS011;1599;51.564;6.990;2023-05-23T08:44:16;24.60;;;10.20;;
3175;SDS011;1599;51.564;6.990;2023-05-23T10:25:08;10.83;;;6.27;;
3175;SDS011;1599;51.564;6.990;2023-05-23T10:27:35;13.53;;;7.10;;
3175;SDS011;1599;51.564;6.990;2023-05-23T10:30:02;14.53;;;6.60;;
3175;SDS011;1599;51.564;6.990;2023-05-23T10:32:28;11.30;;;6.00;;
3175;SDS011;1599;51.564;6.990;2023-05-23T10:37:32;22.27;;;10.70;;
3175;SDS011;1599;51.564;6.990;2023-05-23T10:42:55;12.67;;;7.00;;
3175;SDS011;1599;51.564;6.990;2023-05-23T10:45:27;9.93;;;5.53;;
3175;SDS011;1599;51.564;6.990;2023-05-23T10:47:53;7.43;;;4.83;;
3175;SDS011;1599;51.564;6.990;2023-05-23T10:50:29;8.80;;;5.00;;
3175;SDS011;1599;51.564;6.990;2023-05-23T10:53:06;10.60;;;5.30;;
3175;SDS011;1599;51.564;6.990;2023-05-23T10:55:41;13.80;;;4.80;;
3175;SDS011;1599;51.564;6.990;2023-05-23T10:58:56;6.67;;;4.53;;
3175;SDS011;1599;51.564;6.990;2023-05-23T11:13:56;7.53;;;4.90;;
3175;SDS011;1599;51.564;6.990;2023-05-23T11:16:41;6.80;;;4.87;;
3175;SDS011;1599;51.564;6.990;2023-05-23T11:24:11;9.87;;;5.93;;
3175;SDS011;1599;51.564;6.990;2023-05-23T11:26:37;9.13;;;5.57;;
3175;SDS011;1599;51.564;6.990;2023-05-23T11:29:03;9.70;;;5.10;;
3175;SDS011;1599;51.564;6.990;2023-05-23T11:31:36;7.13;;;4.70;;
3175;SDS011;1599;51.564;6.990;2023-05-23T11:34:02;8.80;;;4.50;;
3175;SDS011;1599;51.564;6.990;2023-05-23T11:36:27;13.70;;;4.87;;
3175;SDS011;1599;51.564;6.990;2023-05-23T11:38:54;11.47;;;5.40;;
3175;SDS011;1599;51.564;6.990;2023-05-23T11:41:21;15.57;;;5.27;;
3175;SDS011;1599;51.564;6.990;2023-05-23T11:44:18;7.67;;;4.63;;
3175;SDS011;1599;51.564;6.990;2023-05-23T11:46:57;10.83;;;4.73;;
3175;SDS011;1599;51.564;6.990;2023-05-23T11:49:24;9.20;;;5.17;;
3175;SDS011;1599;51.564;6.990;2023-05-23T11:51:51;10.47;;;4.43;;
3175;SDS011;1599;51.564;6.990;2023-05-23T11:54:17;7.33;;;4.33;;
3175;SDS011;1599;51.564;6.990;2023-05-23T11:56:50;9.60;;;4.10;;
3175;SDS011;1599;51.564;6.990;2023-05-23T11:59:16;12.83;;;5.10;;
3175;SDS011;1599;51.564;6.990;2023-05-23T12:01:42;12.83;;;4.80;;
3175;SDS011;1599;51.564;6.990;2023-05-23T12:04:11;10.97;;;4.70;;
3175;SDS011;1599;51.564;6.990;2023-05-23T12:06:37;9.37;;;5.60;;
3175;SDS011;1599;51.564;6.990;2023-05-23T12:09:04;12.70;;;5.30;;
3175;SDS011;1599;51.564;6.990;2023-05-23T12:14:55;11.27;;;6.53;;
3175;SDS011;1599;51.564;6.990;2023-05-23T12:30:16;9.00;;;4.43;;
3175;SDS011;1599;51.564;6.990;2023-05-23T12:32:43;10.37;;;5.10;;
3175;SDS011;1599;51.564;6.990;2023-05-23T12:35:10;13.33;;;5.00;;
3175;SDS011;1599;51.564;6.990;2023-05-23T12:37:43;9.30;;;5.00;;
3175;SDS011;1599;51.564;6.990;2023-05-23T12:40:13;10.27;;;4.70;;
3175;SDS011;1599;51.564;6.990;2023-05-23T12:42:58;9.30;;;4.77;;
3175;SDS011;1599;51.564;6.990;2023-05-23T12:49:06;9.53;;;4.00;;
3175;SDS011;1599;51.564;6.990;2023-05-23T12:51:31;14.57;;;6.07;;
3175;SDS011;1599;51.564;6.990;2023-05-23T12:53:58;12.67;;;4.70;;
3175;SDS011;1599;51.564;6.990;2023-05-23T12:56:24;11.70;;;4.90;;
3175;SDS011;1599;51.564;6.990;2023-05-23T12:58:50;14.70;;;4.50;;
3175;SDS011;1599;51.564;6.990;2023-05-23T13:07:09;13.03;;;5.40;;
3175;SDS011;1599;51.564;6.990;2023-05-23T13:13:35;11.67;;;4.40;;
3175;SDS011;1599;51.564;6.990;2023-05-23T13:16:00;12.80;;;4.03;;
3175;SDS011;1599;51.564;6.990;2023-05-23T13:18:26;15.63;;;5.50;;
3175;SDS011;1599;51.564;6.990;2023-05-23T13:20:51;9.00;;;4.40;;
3175;SDS011;1599;51.564;6.990;2023-05-23T13:33:30;11.60;;;4.57;;
3175;SDS011;1599;51.564;6.990;2023-05-23T13:39:12;9.20;;;3.93;;
3175;SDS011;1599;51.564;6.990;2023-05-23T13:42:10;12.37;;;3.60;;
3175;SDS011;1599;51.564;6.990;2023-05-23T14:42:32;5.93;;;3.60;;
3175;SDS011;1599;51.564;6.990;2023-05-23T16:17:39;8.73;;;4.10;;
3175;SDS011;1599;51.564;6.990;2023-05-23T16:24:55;12.27;;;3.63;;
3175;SDS011;1599;51.564;6.990;2023-05-23T16:56:12;11.77;;;3.67;;
3175;SDS011;1599;51.564;6.990;2023-05-23T17:46:33;14.20;;;3.10;;
3175;SDS011;1599;51.564;6.990;2023-05-23T17:48:59;8.10;;;3.80;;
3175;SDS011;1599;51.564;6.990;2023-05-23T17:51:25;7.10;;;4.40;;
3175;SDS011;1599;51.564;6.990;2023-05-23T17:53:50;14.70;;;4.17;;
3175;SDS011;1599;51.564;6.990;2023-05-23T17:56:17;8.53;;;3.67;;
3175;SDS011;1599;51.564;6.990;2023-05-23T17:58:56;10.83;;;3.50;;
3175;SDS011;1599;51.564;6.990;2023-05-23T18:01:22;7.30;;;3.20;;
3175;SDS011;1599;51.564;6.990;2023-05-23T18:03:48;9.20;;;4.20;;
3175;SDS011;1599;51.564;6.990;2023-05-23T18:06:15;7.00;;;3.60;;
3175;SDS011;1599;51.564;6.990;2023-05-23T18:08:40;7.70;;;4.33;;
3175;SDS011;1599;51.564;6.990;2023-05-23T18:11:06;9.70;;;3.47;;
3175;SDS011;1599;51.564;6.990;2023-05-23T18:13:31;24.53;;;3.73;;
3175;SDS011;1599;51.564;6.990;2023-05-23T18:15:57;9.07;;;3.90;;
3175;SDS011;1599;51.564;6.990;2023-05-23T18:18:22;6.93;;;3.27;;
3175;SDS011;1599;51.564;6.990;2023-05-23T18:20:49;10.77;;;3.50;;
3175;SDS011;1599;51.564;6.990;2023-05-23T18:23:16;9.07;;;3.20;;
3175;SDS011;1599;51.564;6.990;2023-05-23T18:25:42;11.60;;;3.07;;
3175;SDS011;1599;51.564;6.990;2023-05-23T18:28:07;10.70;;;3.70;;
3175;SDS011;1599;51.564;6.990;2023-05-23T18:30:33;8.33;;;3.03;;
3175;SDS011;1599;51.564;6.990;2023-05-23T18:33:15;10.20;;;4.13;;
3175;SDS011;1599;51.564;6.990;2023-05-23T18:35:40;9.60;;;3.57;;
3175;SDS011;1599;51.564;6.990;2023-05-23T18:40:43;8.97;;;3.10;;
3175;SDS011;1599;51.564;6.990;2023-05-23T18:43:08;9.30;;;4.30;;
3175;SDS011;1599;51.564;6.990;2023-05-23T18:45:34;9.77;;;3.90;;
3175;SDS011;1599;51.564;6.990;2023-05-23T18:48:09;10.10;;;3.27;;
3175;SDS011;1599;51.564;6.990;2023-05-23T18:50:35;7.53;;;2.80;;
3175;SDS011;1599;51.564;6.990;2023-05-23T18:53:05;8.60;;;3.20;;
3175;SDS011;1599;51.564;6.990;2023-05-23T18:55:31;11.73;;;3.63;;
3175;SDS011;1599;51.564;6.990;2023-05-23T18:58:00;9.47;;;3.30;;
3175;SDS011;1599;51.564;6.990;2023-05-23T19:00:31;7.77;;;3.40;;
3175;SDS011;1599;51.564;6.990;2023-05-23T19:03:06;7.73;;;3.53;;
3175;SDS011;1599;51.564;6.990;2023-05-23T19:05:35;9.93;;;4.07;;
3175;SDS011;1599;51.564;6.990;2023-05-23T19:08:00;7.20;;;4.27;;
3175;SDS011;1599;51.564;6.990;2023-05-23T19:10:27;8.20;;;3.17;;
3175;SDS011;1599;51.564;6.990;2023-05-23T19:12:53;8.30;;;3.50;;
3175;SDS011;1599;51.564;6.990;2023-05-23T19:15:18;22.17;;;3.57;;
3175;SDS011;1599;51.564;6.990;2023-05-23T19:17:44;10.53;;;3.90;;
3175;SDS011;1599;51.564;6.990;2023-05-23T19:20:12;10.63;;;3.20;;
3175;SDS011;1599;51.564;6.990;2023-05-23T19:22:39;8.87;;;3.07;;
3175;SDS011;1599;51.564;6.990;2023-05-23T19:25:05;9.23;;;4.00;;
3175;SDS011;1599;51.564;6.990;2023-05-23T19:27:34;8.03;;;3.17;;
3175;SDS011;1599;51.564;6.990;2023-05-23T19:30:00;5.73;;;4.30;;
3175;SDS011;1599;51.564;6.990;2023-05-23T19:32:26;10.43;;;3.00;;
3175;SDS011;1599;51.564;6.990;2023-05-23T19:34:58;9.43;;;3.10;;
3175;SDS011;1599;51.564;6.990;2023-05-23T19:37:25;6.80;;;3.07;;
3175;SDS011;1599;51.564;6.990;2023-05-23T19:39:54;8.77;;;3.23;;
3175;SDS011;1599;51.564;6.990;2023-05-23T19:42:30;8.50;;;2.93;;
3175;SDS011;1599;51.564;6.990;2023-05-23T19:44:57;7.00;;;3.03;;
3175;SDS011;1599;51.564;6.990;2023-05-23T19:47:22;12.37;;;3.80;;
3175;SDS011;1599;51.564;6.990;2023-05-23T19:49:53;7.83;;;3.30;;
3175;SDS011;1599;51.564;6.990;2023-05-23T19:52:19;13.57;;;3.30;;
3175;SDS011;1599;51.564;6.990;2023-05-23T19:54:47;7.50;;;4.00;;
3175;SDS011;1599;51.564;6.990;2023-05-23T19:57:14;14.00;;;3.40;;
3175;SDS011;1599;51.564;6.990;2023-05-23T19:59:40;13.47;;;3.70;;
3175;SDS011;1599;51.564;6.990;2023-05-23T20:02:06;8.17;;;3.47;;
3175;SDS011;1599;51.564;6.990;2023-05-23T20:04:32;18.50;;;5.20;;
3175;SDS011;1599;51.564;6.990;2023-05-23T20:06:59;13.23;;;4.23;;
3175;SDS011;1599;51.564;6.990;2023-05-23T20:09:25;16.00;;;4.53;;
3175;SDS011;1599;51.564;6.990;2023-05-23T20:11:51;6.73;;;3.00;;
3175;SDS011;1599;51.564;6.990;2023-05-23T20:14:18;8.63;;;3.80;;
3175;SDS011;1599;51.564;6.990;2023-05-23T20:16:44;8.33;;;3.30;;
3175;SDS011;1599;51.564;6.990;2023-05-23T20:19:10;8.50;;;3.60;;
3175;SDS011;1599;51.564;6.990;2023-05-23T20:21:38;8.17;;;3.33;;
3175;SDS011;1599;51.564;6.990;2023-05-23T20:24:04;9.13;;;3.07;;
3175;SDS011;1599;51.564;6.990;2023-05-23T20:26:30;9.87;;;3.30;;
3175;SDS011;1599;51.564;6.990;2023-05-23T20:28:56;10.13;;;3.37;;
3175;SDS011;1599;51.564;6.990;2023-05-23T20:31:21;14.80;;;2.80;;
3175;SDS011;1599;51.564;6.990;2023-05-23T20:33:47;12.53;;;4.03;;
3175;SDS011;1599;51.564;6.990;2023-05-23T20:36:13;6.90;;;2.90;;
3175;SDS011;1599;51.564;6.990;2023-05-23T20:38:43;7.10;;;2.63;;
3175;SDS011;1599;51.564;6.990;2023-05-23T20:41:09;6.57;;;2.47;;
3175;SDS011;1599;51.564;6.990;2023-05-23T20:43:38;7.03;;;2.57;;
3175;SDS011;1599;51.564;6.990;2023-05-23T20:46:16;16.97;;;4.00;;
3175;SDS011;1599;51.564;6.990;2023-05-23T20:48:42;12.53;;;3.20;;
3175;SDS011;1599;51.564;6.990;2023-05-23T20:51:08;9.80;;;3.30;;
3175;SDS011;1599;51.564;6.990;2023-05-23T20:53:35;8.33;;;3.23;;
3175;SDS011;1599;51.564;6.990;2023-05-23T20:56:02;7.47;;;2.90;;
3175;SDS011;1599;51.564;6.990;2023-05-23T20:58:29;6.37;;;2.97;;
3175;SDS011;1599;51.564;6.990;2023-05-23T21:00:54;10.97;;;3.27;;
3175;SDS011;1599;51.564;6.990;2023-05-23T21:03:21;11.73;;;2.97;;
3175;SDS011;1599;51.564;6.990;2023-05-23T21:05:47;17.70;;;3.30;;
3175;SDS011;1599;51.564;6.990;2023-05-23T21:08:14;14.90;;;3.33;;
3175;SDS011;1599;51.564;6.990;2023-05-23T21:10:40;7.57;;;2.60;;
3175;SDS011;1599;51.564;6.990;2023-05-23T21:13:07;14.93;;;5.37;;
3175;SDS011;1599;51.564;6.990;2023-05-23T21:15:32;10.97;;;3.17;;
3175;SDS011;1599;51.564;6.990;2023-05-23T21:18:00;7.40;;;2.43;;
3175;SDS011;1599;51.564;6.990;2023-05-23T21:20:26;7.03;;;2.70;;
3175;SDS011;1599;51.564;6.990;2023-05-23T21:22:53;7.80;;;2.60;;
3175;SDS011;1599;51.564;6.990;2023-05-23T21:25:19;12.00;;;3.10;;
3175;SDS011;1599;51.564;6.990;2023-05-23T21:27:45;6.00;;;2.57;;
3175;SDS011;1599;51.564;6.990;2023-05-23T21:30:11;7.40;;;2.97;;
3175;SDS011;1599;51.564;6.990;2023-05-23T21:32:38;7.83;;;2.80;;
3175;SDS011;1599;51.564;6.990;2023-05-23T21:35:05;8.03;;;3.10;;
3175;SDS011;1599;51.564;6.990;2023-05-23T21:37:31;5.37;;;2.50;;
3175;SDS011;1599;51.564;6.990;2023-05-23T21:39:57;11.80;;;2.50;;
3175;SDS011;1599;51.564;6.990;2023-05-23T21:42:22;7.13;;;2.77;;
3175;SDS011;1599;51.564;6.990;2023-05-23T21:44:49;26.90;;;5.73;;
3175;SDS011;1599;51.564;6.990;2023-05-23T21:47:15;8.57;;;2.97;;
3175;SDS011;1599;51.564;6.990;2023-05-23T21:49:41;15.43;;;3.00;;
3175;SDS011;1599;51.564;6.990;2023-05-23T21:52:08;6.70;;;2.90;;
3175;SDS011;1599;51.564;6.990;2023-05-23T21:54:33;7.67;;;2.53;;
3175;SDS011;1599;51.564;6.990;2023-05-23T21:56:59;5.47;;;3.33;;
3175;SDS011;1599;51.564;6.990;2023-05-23T21:59:25;9.33;;;3.37;;
3175;SDS011;1599;51.564;6.990;2023-05-23T22:01:51;8.10;;;2.70;;
3175;SDS011;1599;51.564;6.990;2023-05-23T22:04:17;10.43;;;3.47;;
3175;SDS011;1599;51.564;6.990;2023-05-23T22:06:44;10.97;;;3.10;;
3175;SDS011;1599;51.564;6.990;2023-05-23T22:09:10;11.37;;;2.53;;
3175;SDS011;1599;51.564;6.990;2023-05-23T22:11:39;6.70;;;3.07;;
3175;SDS011;1599;51.564;6.990;2023-05-23T22:14:05;13.13;;;2.97;;
3175;SDS011;1599;51.564;6.990;2023-05-23T22:16:31;7.70;;;3.27;;
3175;SDS011;1599;51.564;6.990;2023-05-23T22:18:57;10.10;;;3.40;;
3175;SDS011;1599;51.564;6.990;2023-05-23T22:21:26;8.80;;;3.00;;
3175;SDS011;1599;51.564;6.990;2023-05-23T22:23:51;7.87;;;2.73;;
3175;SDS011;1599;51.564;6.990;2023-05-23T22:26:17;10.00;;;2.47;;
3175;SDS011;1599;51.564;6.990;2023-05-23T22:28:44;9.57;;;3.30;;
3175;SDS011;1599;51.564;6.990;2023-05-23T22:31:11;10.33;;;3.53;;
3175;SDS011;1599;51.564;6.990;2023-05-23T22:33:40;12.87;;;3.27;;
3175;SDS011;1599;51.564;6.990;2023-05-23T22:39:01;9.90;;;3.10;;
3175;SDS011;1599;51.564;6.990;2023-05-23T22:41:54;12.13;;;2.73;;
3175;SDS011;1599;51.564;6.990;2023-05-23T22:44:20;12.83;;;2.77;;
3175;SDS011;1599;51.564;6.990;2023-05-23T22:46:46;11.80;;;3.27;;
3175;SDS011;1599;51.564;6.990;2023-05-23T22:49:13;9.77;;;2.97;;
3175;SDS011;1599;51.564;6.990;2023-05-23T22:51:40;14.00;;;2.60;;
3175;SDS011;1599;51.564;6.990;2023-05-23T22:54:08;9.27;;;2.97;;
3175;SDS011;1599;51.564;6.990;2023-05-23T22:56:34;11.10;;;3.03;;
3175;SDS011;1599;51.564;6.990;2023-05-23T22:59:00;10.70;;;2.93;;
3175;SDS011;1599;51.564;6.990;2023-05-23T23:01:26;9.83;;;2.80;;
3175;SDS011;1599;51.564;6.990;2023-05-23T23:03:52;17.97;;;3.67;;
3175;SDS011;1599;51.564;6.990;2023-05-23T23:06:18;6.77;;;2.37;;
3175;SDS011;1599;51.564;6.990;2023-05-23T23:08:45;5.83;;;2.87;;
3175;SDS011;1599;51.564;6.990;2023-05-23T23:11:11;10.33;;;2.77;;
3175;SDS011;1599;51.564;6.990;2023-05-23T23:13:37;15.87;;;3.73;;
3175;SDS011;1599;51.564;6.990;2023-05-23T23:16:03;10.77;;;3.30;;
3175;SDS011;1599;51.564;6.990;2023-05-23T23:18:50;13.60;;;2.83;;
3175;SDS011;1599;51.564;6.990;2023-05-23T23:21:17;8.13;;;2.80;;
3175;SDS011;1599;51.564;6.990;2023-05-23T23:23:43;10.50;;;2.70;;
3175;SDS011;1599;51.564;6.990;2023-05-23T23:26:08;20.40;;;3.30;;
3175;SDS011;1599;51.564;6.990;2023-05-23T23:28:34;7.13;;;2.80;;
3175;SDS011;1599;51.564;6.990;2023-05-23T23:31:00;20.23;;;4.40;;
3175;SDS011;1599;51.564;6.990;2023-05-23T23:33:27;7.47;;;3.47;;
3175;SDS011;1599;51.564;6.990;2023-05-23T23:35:53;10.40;;;3.80;;
3175;SDS011;1599;51.564;6.990;2023-05-23T23:38:20;7.03;;;3.13;;
3175;SDS011;1599;51.564;6.990;2023-05-23T23:40:46;12.93;;;2.80;;
3175;SDS011;1599;51.564;6.990;2023-05-23T23:43:12;16.63;;;3.47;;
3175;SDS011;1599;51.564;6.990;2023-05-23T23:45:38;8.30;;;3.17;;
3175;SDS011;1599;51.564;6.990;2023-05-23T23:48:04;8.17;;;3.20;;
3175;SDS011;1599;51.564;6.990;2023-05-23T23:50:50;16.10;;;2.90;;
3175;SDS011;1599;51.564;6.990;2023-05-23T23:54:04;16.00;;;3.67;;
3175;SDS011;1599;51.564;6.990;2023-05-23T23:56:30;16.80;;;4.00;;
3175;SDS011;1599;51.564;6.990;2023-05-23T23:58:56;7.53;;;3.03;;
